sensor_id;sensor_type;location;lat;lon;timestamp;temperature;humidity
1800;DHT22;919;48.274;12.292;2024-02-21T00:01:51;3.90;99.90
1800;DHT22;919;48.274;12.292;2024-02-21T00:04:17;3.90;99.90
1800;DHT22;919;48.274;12.292;2024-02-21T00:06:44;3.80;99.90
1800;DHT22;919;48.274;12.292;2024-02-21T00:09:11;3.80;99.90
1800;DHT22;919;48.274;12.292;2024-02-21T00:11:38;3.90;99.90
1800;DHT22;919;48.274;12.292;2024-02-21T00:14:06;3.90;99.90
1800;DHT22;919;48.274;12.292;2024-02-21T00:16:33;3.90;99.90
1800;DHT22;919;48.274;12.292;2024-02-21T00:18:59;3.90;99.90
1800;DHT22;919;48.274;12.292;2024-02-21T00:21:26;3.90;99.90
1800;DHT22;919;48.274;12.292;2024-02-21T00:23:53;3.80;99.90
1800;DHT22;919;48.274;12.292;2024-02-21T00:26:19;3.90;99.90
1800;DHT22;919;48.274;12.292;2024-02-21T00:28:46;3.90;99.90
1800;DHT22;919;48.274;12.292;2024-02-21T00:31:14;3.90;99.90
1800;DHT22;919;48.274;12.292;2024-02-21T00:33:41;3.90;99.90
1800;DHT22;919;48.274;12.292;2024-02-21T00:36:08;4.00;99.90
1800;DHT22;919;48.274;12.292;2024-02-21T00:38:34;4.10;99.90
1800;DHT22;919;48.274;12.292;2024-02-21T00:41:01;4.10;99.90
1800;DHT22;919;48.274;12.292;2024-02-21T00:43:28;4.10;99.90
1800;DHT22;919;48.274;12.292;2024-02-21T00:45:54;4.10;99.90
1800;DHT22;919;48.274;12.292;2024-02-21T00:48:23;4.10;99.90
1800;DHT22;919;48.274;12.292;2024-02-21T00:50:49;4.10;99.90
1800;DHT22;919;48.274;12.292;2024-02-21T00:53:17;4.10;99.90
1800;DHT22;919;48.274;12.292;2024-02-21T00:55:44;4.20;99.90
1800;DHT22;919;48.274;12.292;2024-02-21T00:58:10;4.10;99.90
1800;DHT22;919;48.274;12.292;2024-02-21T01:00:37;4.20;99.90
1800;DHT22;919;48.274;12.292;2024-02-21T01:03:04;4.20;99.90
1800;DHT22;919;48.274;12.292;2024-02-21T01:05:32;4.10;99.90
1800;DHT22;919;48.274;12.292;2024-02-21T01:07:58;4.10;99.90
1800;DHT22;919;48.274;12.292;2024-02-21T01:10:25;4.10;99.90
1800;DHT22;919;48.274;12.292;2024-02-21T01:12:52;4.00;99.90
1800;DHT22;919;48.274;12.292;2024-02-21T01:15:19;3.80;99.90
1800;DHT22;919;48.274;12.292;2024-02-21T01:17:45;3.80;99.90
1800;DHT22;919;48.274;12.292;2024-02-21T01:20:12;3.80;99.90
1800;DHT22;919;48.274;12.292;2024-02-21T01:22:40;3.70;99.90
1800;DHT22;919;48.274;12.292;2024-02-21T01:25:08;3.70;99.90
1800;DHT22;919;48.274;12.292;2024-02-21T01:27:34;3.70;99.90
1800;DHT22;919;48.274;12.292;2024-02-21T01:30:01;3.80;99.90
1800;DHT22;919;48.274;12.292;2024-02-21T01:32:28;3.80;99.90
1800;DHT22;919;48.274;12.292;2024-02-21T01:34:54;3.80;99.90
1800;DHT22;919;48.274;12.292;2024-02-21T01:37:21;3.80;99.90
1800;DHT22;919;48.274;12.292;2024-02-21T01:39:49;3.80;99.90
1800;DHT22;919;48.274;12.292;2024-02-21T01:42:16;3.90;99.90
1800;DHT22;919;48.274;12.292;2024-02-21T01:44:43;4.00;99.90
1800;DHT22;919;48.274;12.292;2024-02-21T01:47:12;4.00;99.90
1800;DHT22;919;48.274;12.292;2024-02-21T01:49:40;4.00;99.90
1800;DHT22;919;48.274;12.292;2024-02-21T01:52:07;4.00;99.90
1800;DHT22;919;48.274;12.292;2024-02-21T01:54:35;4.10;99.90
1800;DHT22;919;48.274;12.292;2024-02-21T01:57:03;4.10;99.90
1800;DHT22;919;48.274;12.292;2024-02-21T01:59:30;4.10;99.90
1800;DHT22;919;48.274;12.292;2024-02-21T02:01:58;4.10;99.90
1800;DHT22;919;48.274;12.292;2024-02-21T02:04:26;4.10;99.90
1800;DHT22;919;48.274;12.292;2024-02-21T02:06:54;4.20;99.90
1800;DHT22;919;48.274;12.292;2024-02-21T02:09:21;4.20;99.90
1800;DHT22;919;48.274;12.292;2024-02-21T02:11:47;4.20;99.90
1800;DHT22;919;48.274;12.292;2024-02-21T02:14:15;4.20;99.90
1800;DHT22;919;48.274;12.292;2024-02-21T02:16:42;4.20;99.90
1800;DHT22;919;48.274;12.292;2024-02-21T02:19:11;4.20;99.90
1800;DHT22;919;48.274;12.292;2024-02-21T02:21:42;4.20;99.90
1800;DHT22;919;48.274;12.292;2024-02-21T02:24:11;4.20;99.90
1800;DHT22;919;48.274;12.292;2024-02-21T02:26:39;4.20;99.90
1800;DHT22;919;48.274;12.292;2024-02-21T02:32:28;4.10;99.90
1800;DHT22;919;48.274;12.292;2024-02-21T02:34:55;4.10;99.90
1800;DHT22;919;48.274;12.292;2024-02-21T02:37:22;4.10;99.90
1800;DHT22;919;48.274;12.292;2024-02-21T02:39:50;4.10;99.90
1800;DHT22;919;48.274;12.292;2024-02-21T02:42:17;4.10;99.90
1800;DHT22;919;48.274;12.292;2024-02-21T02:44:43;4.10;99.90
1800;DHT22;919;48.274;12.292;2024-02-21T02:47:10;4.20;99.90
1800;DHT22;919;48.274;12.292;2024-02-21T02:49:37;4.20;99.90
1800;DHT22;919;48.274;12.292;2024-02-21T02:52:04;4.20;99.90
1800;DHT22;919;48.274;12.292;2024-02-21T02:54:31;4.20;99.90
1800;DHT22;919;48.274;12.292;2024-02-21T02:56:59;4.30;99.90
1800;DHT22;919;48.274;12.292;2024-02-21T02:59:25;4.20;99.90
1800;DHT22;919;48.274;12.292;2024-02-21T03:01:52;4.20;99.90
1800;DHT22;919;48.274;12.292;2024-02-21T03:04:19;4.30;99.90
1800;DHT22;919;48.274;12.292;2024-02-21T03:06:46;4.30;99.90
1800;DHT22;919;48.274;12.292;2024-02-21T03:09:12;4.30;99.90
1800;DHT22;919;48.274;12.292;2024-02-21T03:11:41;4.30;99.90
1800;DHT22;919;48.274;12.292;2024-02-21T03:14:11;4.30;99.90
1800;DHT22;919;48.274;12.292;2024-02-21T03:16:38;4.30;99.90
1800;DHT22;919;48.274;12.292;2024-02-21T03:19:04;4.40;99.90
1800;DHT22;919;48.274;12.292;2024-02-21T03:21:31;4.40;99.90
1800;DHT22;919;48.274;12.292;2024-02-21T03:23:58;4.50;99.90
1800;DHT22;919;48.274;12.292;2024-02-21T03:26:24;4.50;99.90
1800;DHT22;919;48.274;12.292;2024-02-21T03:28:51;4.50;99.90
1800;DHT22;919;48.274;12.292;2024-02-21T03:31:19;4.60;99.90
1800;DHT22;919;48.274;12.292;2024-02-21T03:33:46;4.60;99.90
1800;DHT22;919;48.274;12.292;2024-02-21T03:36:13;4.70;99.90
1800;DHT22;919;48.274;12.292;2024-02-21T03:38:40;4.80;99.90
1800;DHT22;919;48.274;12.292;2024-02-21T03:41:07;4.80;99.90
1800;DHT22;919;48.274;12.292;2024-02-21T03:43:34;4.90;99.90
1800;DHT22;919;48.274;12.292;2024-02-21T03:46:01;4.90;99.90
1800;DHT22;919;48.274;12.292;2024-02-21T03:48:29;4.90;99.90
1800;DHT22;919;48.274;12.292;2024-02-21T03:50:56;5.00;99.90
1800;DHT22;919;48.274;12.292;2024-02-21T03:53:22;5.00;99.90
1800;DHT22;919;48.274;12.292;2024-02-21T03:55:49;5.00;99.90
1800;DHT22;919;48.274;12.292;2024-02-21T03:58:16;5.00;99.90
1800;DHT22;919;48.274;12.292;2024-02-21T04:00:42;5.10;99.90
1800;DHT22;919;48.274;12.292;2024-02-21T04:03:09;5.10;99.90
1800;DHT22;919;48.274;12.292;2024-02-21T04:05:37;5.10;99.90
1800;DHT22;919;48.274;12.292;2024-02-21T04:08:05;5.00;99.90
1800;DHT22;919;48.274;12.292;2024-02-21T04:10:31;5.00;99.90
1800;DHT22;919;48.274;12.292;2024-02-21T04:12:58;5.00;99.90
1800;DHT22;919;48.274;12.292;2024-02-21T04:15:25;5.00;99.90
1800;DHT22;919;48.274;12.292;2024-02-21T04:17:52;5.00;99.90
1800;DHT22;919;48.274;12.292;2024-02-21T04:20:18;5.00;99.90
1800;DHT22;919;48.274;12.292;2024-02-21T04:22:46;5.00;99.90
1800;DHT22;919;48.274;12.292;2024-02-21T04:25:13;5.00;99.90
1800;DHT22;919;48.274;12.292;2024-02-21T04:27:40;5.00;99.90
1800;DHT22;919;48.274;12.292;2024-02-21T04:30:08;4.90;99.90
1800;DHT22;919;48.274;12.292;2024-02-21T04:32:35;4.90;99.90
1800;DHT22;919;48.274;12.292;2024-02-21T04:35:02;4.90;99.90
1800;DHT22;919;48.274;12.292;2024-02-21T04:37:28;4.90;99.90
1800;DHT22;919;48.274;12.292;2024-02-21T04:39:57;4.80;99.90
1800;DHT22;919;48.274;12.292;2024-02-21T04:42:24;4.80;99.90
1800;DHT22;919;48.274;12.292;2024-02-21T04:44:51;4.80;99.90
1800;DHT22;919;48.274;12.292;2024-02-21T04:47:18;4.80;99.90
1800;DHT22;919;48.274;12.292;2024-02-21T04:49:45;4.80;99.90
1800;DHT22;919;48.274;12.292;2024-02-21T04:52:12;4.80;99.90
1800;DHT22;919;48.274;12.292;2024-02-21T04:54:39;4.80;99.90
1800;DHT22;919;48.274;12.292;2024-02-21T04:57:07;4.80;99.90
1800;DHT22;919;48.274;12.292;2024-02-21T04:59:35;4.90;99.90
1800;DHT22;919;48.274;12.292;2024-02-21T05:02:02;4.90;99.90
1800;DHT22;919;48.274;12.292;2024-02-21T05:04:29;4.90;99.90
1800;DHT22;919;48.274;12.292;2024-02-21T05:06:56;4.90;99.90
1800;DHT22;919;48.274;12.292;2024-02-21T05:09:23;4.90;99.90
1800;DHT22;919;48.274;12.292;2024-02-21T05:11:49;4.90;99.90
1800;DHT22;919;48.274;12.292;2024-02-21T05:14:17;4.90;99.90
1800;DHT22;919;48.274;12.292;2024-02-21T05:16:44;4.90;99.90
1800;DHT22;919;48.274;12.292;2024-02-21T05:19:11;4.90;99.90
1800;DHT22;919;48.274;12.292;2024-02-21T05:21:37;5.00;99.90
1800;DHT22;919;48.274;12.292;2024-02-21T05:24:05;5.00;99.90
1800;DHT22;919;48.274;12.292;2024-02-21T05:26:32;4.90;99.90
1800;DHT22;919;48.274;12.292;2024-02-21T05:28:58;4.90;99.90
1800;DHT22;919;48.274;12.292;2024-02-21T05:31:43;5.00;99.90
1800;DHT22;919;48.274;12.292;2024-02-21T05:34:21;5.00;99.90
1800;DHT22;919;48.274;12.292;2024-02-21T05:36:48;5.00;99.90
1800;DHT22;919;48.274;12.292;2024-02-21T05:39:15;5.00;99.90
1800;DHT22;919;48.274;12.292;2024-02-21T05:41:42;5.00;99.90
1800;DHT22;919;48.274;12.292;2024-02-21T05:44:08;5.00;99.90
1800;DHT22;919;48.274;12.292;2024-02-21T05:46:36;4.90;99.90
1800;DHT22;919;48.274;12.292;2024-02-21T05:49:03;4.90;99.90
1800;DHT22;919;48.274;12.292;2024-02-21T05:51:32;4.80;99.90
1800;DHT22;919;48.274;12.292;2024-02-21T05:53:59;4.80;99.90
1800;DHT22;919;48.274;12.292;2024-02-21T05:56:26;4.80;99.90
1800;DHT22;919;48.274;12.292;2024-02-21T05:58:54;4.70;99.90
1800;DHT22;919;48.274;12.292;2024-02-21T06:01:20;4.70;99.90
1800;DHT22;919;48.274;12.292;2024-02-21T06:03:48;4.60;99.90
1800;DHT22;919;48.274;12.292;2024-02-21T06:06:15;4.50;99.90
1800;DHT22;919;48.274;12.292;2024-02-21T06:08:42;4.50;99.90
1800;DHT22;919;48.274;12.292;2024-02-21T06:11:09;4.40;99.90
1800;DHT22;919;48.274;12.292;2024-02-21T06:13:38;4.40;99.90
1800;DHT22;919;48.274;12.292;2024-02-21T06:16:06;4.40;99.90
1800;DHT22;919;48.274;12.292;2024-02-21T06:18:35;4.40;99.90
1800;DHT22;919;48.274;12.292;2024-02-21T06:21:03;4.30;99.90
1800;DHT22;919;48.274;12.292;2024-02-21T06:23:30;4.30;99.90
1800;DHT22;919;48.274;12.292;2024-02-21T06:25:57;4.30;99.90
1800;DHT22;919;48.274;12.292;2024-02-21T06:28:24;4.30;99.90
1800;DHT22;919;48.274;12.292;2024-02-21T06:30:50;4.40;99.90
1800;DHT22;919;48.274;12.292;2024-02-21T06:33:17;4.40;99.90
1800;DHT22;919;48.274;12.292;2024-02-21T06:35:48;4.40;99.90
1800;DHT22;919;48.274;12.292;2024-02-21T06:38:19;4.50;99.90
1800;DHT22;919;48.274;12.292;2024-02-21T06:40:45;4.50;99.90
1800;DHT22;919;48.274;12.292;2024-02-21T06:43:17;4.50;99.90
1800;DHT22;919;48.274;12.292;2024-02-21T06:45:44;4.50;99.90
1800;DHT22;919;48.274;12.292;2024-02-21T06:48:13;4.40;99.90
1800;DHT22;919;48.274;12.292;2024-02-21T06:50:39;4.50;99.90
1800;DHT22;919;48.274;12.292;2024-02-21T06:53:06;4.60;99.90
1800;DHT22;919;48.274;12.292;2024-02-21T06:55:35;4.60;99.90
1800;DHT22;919;48.274;12.292;2024-02-21T06:58:02;4.70;99.90
1800;DHT22;919;48.274;12.292;2024-02-21T07:00:28;4.70;99.90
1800;DHT22;919;48.274;12.292;2024-02-21T07:02:55;4.70;99.90
1800;DHT22;919;48.274;12.292;2024-02-21T07:05:23;4.80;99.90
1800;DHT22;919;48.274;12.292;2024-02-21T07:07:50;4.80;99.90
1800;DHT22;919;48.274;12.292;2024-02-21T07:10:17;4.80;99.90
1800;DHT22;919;48.274;12.292;2024-02-21T07:12:45;4.80;99.90
1800;DHT22;919;48.274;12.292;2024-02-21T07:15:11;4.90;99.90
1800;DHT22;919;48.274;12.292;2024-02-21T07:17:38;5.10;99.90
1800;DHT22;919;48.274;12.292;2024-02-21T07:20:06;5.20;99.90
1800;DHT22;919;48.274;12.292;2024-02-21T07:22:33;5.40;99.90
1800;DHT22;919;48.274;12.292;2024-02-21T07:25:00;5.50;99.90
1800;DHT22;919;48.274;12.292;2024-02-21T07:27:26;5.70;99.90
1800;DHT22;919;48.274;12.292;2024-02-21T07:29:57;5.80;99.90
1800;DHT22;919;48.274;12.292;2024-02-21T07:32:24;5.80;99.90
1800;DHT22;919;48.274;12.292;2024-02-21T07:34:51;5.90;99.90
1800;DHT22;919;48.274;12.292;2024-02-21T07:37:17;5.90;99.90
1800;DHT22;919;48.274;12.292;2024-02-21T07:39:44;6.00;99.90
1800;DHT22;919;48.274;12.292;2024-02-21T07:42:11;6.00;99.90
1800;DHT22;919;48.274;12.292;2024-02-21T07:44:38;6.10;99.90
1800;DHT22;919;48.274;12.292;2024-02-21T07:47:06;6.20;99.90
1800;DHT22;919;48.274;12.292;2024-02-21T07:49:40;6.20;99.90
1800;DHT22;919;48.274;12.292;2024-02-21T07:52:07;6.20;99.90
1800;DHT22;919;48.274;12.292;2024-02-21T07:54:33;6.30;99.90
1800;DHT22;919;48.274;12.292;2024-02-21T07:57:00;6.30;99.90
1800;DHT22;919;48.274;12.292;2024-02-21T07:59:28;6.30;99.90
1800;DHT22;919;48.274;12.292;2024-02-21T08:01:56;6.30;99.90
1800;DHT22;919;48.274;12.292;2024-02-21T08:04:24;6.30;99.90
1800;DHT22;919;48.274;12.292;2024-02-21T08:06:52;6.30;99.90
1800;DHT22;919;48.274;12.292;2024-02-21T08:09:21;6.30;99.90
1800;DHT22;919;48.274;12.292;2024-02-21T08:11:48;6.30;99.90
1800;DHT22;919;48.274;12.292;2024-02-21T08:14:15;6.50;99.90
1800;DHT22;919;48.274;12.292;2024-02-21T08:16:42;6.50;99.90
1800;DHT22;919;48.274;12.292;2024-02-21T08:19:10;6.40;99.90
1800;DHT22;919;48.274;12.292;2024-02-21T08:21:38;6.40;99.90
1800;DHT22;919;48.274;12.292;2024-02-21T08:24:05;6.50;99.90
1800;DHT22;919;48.274;12.292;2024-02-21T08:26:32;6.50;99.90
1800;DHT22;919;48.274;12.292;2024-02-21T08:28:58;6.60;99.90
1800;DHT22;919;48.274;12.292;2024-02-21T08:31:27;6.50;99.90
1800;DHT22;919;48.274;12.292;2024-02-21T08:33:57;6.50;99.90
1800;DHT22;919;48.274;12.292;2024-02-21T08:36:28;6.50;99.90
1800;DHT22;919;48.274;12.292;2024-02-21T08:38:56;6.50;99.90
1800;DHT22;919;48.274;12.292;2024-02-21T08:41:23;6.50;99.90
1800;DHT22;919;48.274;12.292;2024-02-21T08:43:50;6.60;99.90
1800;DHT22;919;48.274;12.292;2024-02-21T08:46:17;6.50;99.90
1800;DHT22;919;48.274;12.292;2024-02-21T08:48:44;6.50;99.90
1800;DHT22;919;48.274;12.292;2024-02-21T08:51:11;6.50;99.90
1800;DHT22;919;48.274;12.292;2024-02-21T08:53:38;6.50;99.90
1800;DHT22;919;48.274;12.292;2024-02-21T08:56:07;6.50;99.90
1800;DHT22;919;48.274;12.292;2024-02-21T08:58:35;6.60;99.90
1800;DHT22;919;48.274;12.292;2024-02-21T09:01:03;6.80;99.90
1800;DHT22;919;48.274;12.292;2024-02-21T09:03:31;7.20;99.90
1800;DHT22;919;48.274;12.292;2024-02-21T09:05:58;7.30;99.90
1800;DHT22;919;48.274;12.292;2024-02-21T09:08:25;7.30;99.90
1800;DHT22;919;48.274;12.292;2024-02-21T09:10:51;7.30;99.90
1800;DHT22;919;48.274;12.292;2024-02-21T09:13:19;7.50;99.90
1800;DHT22;919;48.274;12.292;2024-02-21T09:15:47;7.70;99.90
1800;DHT22;919;48.274;12.292;2024-02-21T09:18:14;7.80;99.90
1800;DHT22;919;48.274;12.292;2024-02-21T09:20:41;8.00;99.90
1800;DHT22;919;48.274;12.292;2024-02-21T09:23:08;8.20;99.90
1800;DHT22;919;48.274;12.292;2024-02-21T09:25:34;8.30;99.90
1800;DHT22;919;48.274;12.292;2024-02-21T09:28:02;8.40;99.90
1800;DHT22;919;48.274;12.292;2024-02-21T09:30:30;8.70;99.90
1800;DHT22;919;48.274;12.292;2024-02-21T09:32:57;8.60;99.90
1800;DHT22;919;48.274;12.292;2024-02-21T09:35:25;8.50;99.90
1800;DHT22;919;48.274;12.292;2024-02-21T09:37:53;8.70;99.90
1800;DHT22;919;48.274;12.292;2024-02-21T09:40:20;8.80;99.90
1800;DHT22;919;48.274;12.292;2024-02-21T09:42:48;9.00;99.90
1800;DHT22;919;48.274;12.292;2024-02-21T09:45:19;9.20;99.90
1800;DHT22;919;48.274;12.292;2024-02-21T09:47:58;9.40;99.90
1800;DHT22;919;48.274;12.292;2024-02-21T09:50:27;9.50;99.90
1800;DHT22;919;48.274;12.292;2024-02-21T09:52:56;9.40;99.90
1800;DHT22;919;48.274;12.292;2024-02-21T09:55:25;9.40;99.90
1800;DHT22;919;48.274;12.292;2024-02-21T09:57:53;9.60;99.90
1800;DHT22;919;48.274;12.292;2024-02-21T10:00:20;9.70;99.90
1800;DHT22;919;48.274;12.292;2024-02-21T10:02:49;9.70;99.90
1800;DHT22;919;48.274;12.292;2024-02-21T10:05:16;9.80;99.90
1800;DHT22;919;48.274;12.292;2024-02-21T10:07:43;9.90;99.90
1800;DHT22;919;48.274;12.292;2024-02-21T10:10:11;10.10;99.90
1800;DHT22;919;48.274;12.292;2024-02-21T10:12:48;10.00;99.90
1800;DHT22;919;48.274;12.292;2024-02-21T10:15:20;10.10;99.90
1800;DHT22;919;48.274;12.292;2024-02-21T10:17:49;10.20;99.90
1800;DHT22;919;48.274;12.292;2024-02-21T10:20:16;10.30;99.90
1800;DHT22;919;48.274;12.292;2024-02-21T10:22:43;10.30;99.90
1800;DHT22;919;48.274;12.292;2024-02-21T10:25:10;10.50;99.90
1800;DHT22;919;48.274;12.292;2024-02-21T10:27:38;10.60;99.90
1800;DHT22;919;48.274;12.292;2024-02-21T10:30:06;10.70;99.90
1800;DHT22;919;48.274;12.292;2024-02-21T10:32:33;10.70;99.90
1800;DHT22;919;48.274;12.292;2024-02-21T10:35:05;10.80;99.90
1800;DHT22;919;48.274;12.292;2024-02-21T10:37:32;10.90;99.90
1800;DHT22;919;48.274;12.292;2024-02-21T10:39:58;11.10;99.90
1800;DHT22;919;48.274;12.292;2024-02-21T10:42:29;11.00;99.90
1800;DHT22;919;48.274;12.292;2024-02-21T10:45:00;11.10;99.90
1800;DHT22;919;48.274;12.292;2024-02-21T10:47:31;11.20;99.90
1800;DHT22;919;48.274;12.292;2024-02-21T10:50:05;11.40;99.90
1800;DHT22;919;48.274;12.292;2024-02-21T10:52:41;11.50;99.90
1800;DHT22;919;48.274;12.292;2024-02-21T10:55:20;11.70;99.90
1800;DHT22;919;48.274;12.292;2024-02-21T10:57:50;11.60;99.90
1800;DHT22;919;48.274;12.292;2024-02-21T11:00:18;11.60;99.90
1800;DHT22;919;48.274;12.292;2024-02-21T11:02:45;11.60;99.90
1800;DHT22;919;48.274;12.292;2024-02-21T11:05:14;11.70;99.90
1800;DHT22;919;48.274;12.292;2024-02-21T11:07:41;11.80;99.90
1800;DHT22;919;48.274;12.292;2024-02-21T11:10:20;11.80;99.90
1800;DHT22;919;48.274;12.292;2024-02-21T11:12:49;11.90;99.90
1800;DHT22;919;48.274;12.292;2024-02-21T11:15:16;12.00;99.90
1800;DHT22;919;48.274;12.292;2024-02-21T11:17:53;11.90;99.90
1800;DHT22;919;48.274;12.292;2024-02-21T11:20:32;11.90;99.90
1800;DHT22;919;48.274;12.292;2024-02-21T11:22:59;12.00;99.90
1800;DHT22;919;48.274;12.292;2024-02-21T11:25:27;12.20;99.90
1800;DHT22;919;48.274;12.292;2024-02-21T11:27:59;12.10;99.90
1800;DHT22;919;48.274;12.292;2024-02-21T11:30:27;12.20;99.90
1800;DHT22;919;48.274;12.292;2024-02-21T11:32:59;12.20;99.90
1800;DHT22;919;48.274;12.292;2024-02-21T11:35:31;12.10;99.90
1800;DHT22;919;48.274;12.292;2024-02-21T11:38:08;12.10;99.90
1800;DHT22;919;48.274;12.292;2024-02-21T11:40:37;12.20;99.90
1800;DHT22;919;48.274;12.292;2024-02-21T11:43:04;12.20;99.90
1800;DHT22;919;48.274;12.292;2024-02-21T11:45:31;12.40;99.90
1800;DHT22;919;48.274;12.292;2024-02-21T11:47:59;12.40;99.90
1800;DHT22;919;48.274;12.292;2024-02-21T11:50:30;12.30;99.90
1800;DHT22;919;48.274;12.292;2024-02-21T11:52:57;12.40;99.90
1800;DHT22;919;48.274;12.292;2024-02-21T11:55:23;12.40;99.90
1800;DHT22;919;48.274;12.292;2024-02-21T11:57:50;12.50;99.90
1800;DHT22;919;48.274;12.292;2024-02-21T12:00:18;12.70;99.90
1800;DHT22;919;48.274;12.292;2024-02-21T12:02:46;12.80;99.90
1800;DHT22;919;48.274;12.292;2024-02-21T12:05:13;12.90;99.90
1800;DHT22;919;48.274;12.292;2024-02-21T12:07:42;13.00;99.90
1800;DHT22;919;48.274;12.292;2024-02-21T12:10:10;12.90;99.90
1800;DHT22;919;48.274;12.292;2024-02-21T12:12:37;12.70;99.90
1800;DHT22;919;48.274;12.292;2024-02-21T12:15:05;12.80;99.90
1800;DHT22;919;48.274;12.292;2024-02-21T12:17:32;12.80;99.90
1800;DHT22;919;48.274;12.292;2024-02-21T12:20:00;13.00;99.90
1800;DHT22;919;48.274;12.292;2024-02-21T12:22:29;13.00;99.90
1800;DHT22;919;48.274;12.292;2024-02-21T12:24:59;12.80;99.90
1800;DHT22;919;48.274;12.292;2024-02-21T12:27:26;12.90;99.90
1800;DHT22;919;48.274;12.292;2024-02-21T12:29:52;12.90;99.90
1800;DHT22;919;48.274;12.292;2024-02-21T12:32:19;13.00;99.90
1800;DHT22;919;48.274;12.292;2024-02-21T12:34:46;13.00;99.90
1800;DHT22;919;48.274;12.292;2024-02-21T12:37:12;13.10;99.90
1800;DHT22;919;48.274;12.292;2024-02-21T12:39:41;13.10;99.90
1800;DHT22;919;48.274;12.292;2024-02-21T12:42:09;13.30;99.90
1800;DHT22;919;48.274;12.292;2024-02-21T12:44:37;13.10;99.90
1800;DHT22;919;48.274;12.292;2024-02-21T12:47:03;13.00;99.90
1800;DHT22;919;48.274;12.292;2024-02-21T12:49:30;13.10;99.90
1800;DHT22;919;48.274;12.292;2024-02-21T12:51:57;13.10;99.90
1800;DHT22;919;48.274;12.292;2024-02-21T12:54:24;13.20;99.90
1800;DHT22;919;48.274;12.292;2024-02-21T12:56:51;13.10;99.90
1800;DHT22;919;48.274;12.292;2024-02-21T12:59:19;13.10;99.90
1800;DHT22;919;48.274;12.292;2024-02-21T13:01:46;13.20;99.90
1800;DHT22;919;48.274;12.292;2024-02-21T13:04:13;13.20;99.90
1800;DHT22;919;48.274;12.292;2024-02-21T13:06:39;13.30;99.90
1800;DHT22;919;48.274;12.292;2024-02-21T13:09:06;13.40;99.90
1800;DHT22;919;48.274;12.292;2024-02-21T13:11:36;13.60;99.90
1800;DHT22;919;48.274;12.292;2024-02-21T13:14:03;13.50;99.90
1800;DHT22;919;48.274;12.292;2024-02-21T13:16:31;13.50;99.90
1800;DHT22;919;48.274;12.292;2024-02-21T13:18:59;13.50;99.90
1800;DHT22;919;48.274;12.292;2024-02-21T13:21:26;13.40;99.90
1800;DHT22;919;48.274;12.292;2024-02-21T13:23:53;13.50;99.90
1800;DHT22;919;48.274;12.292;2024-02-21T13:26:19;13.50;99.90
1800;DHT22;919;48.274;12.292;2024-02-21T13:28:46;13.60;99.90
1800;DHT22;919;48.274;12.292;2024-02-21T13:31:13;13.70;99.90
1800;DHT22;919;48.274;12.292;2024-02-21T13:33:43;13.90;99.90
1800;DHT22;919;48.274;12.292;2024-02-21T13:36:10;13.90;99.90
1800;DHT22;919;48.274;12.292;2024-02-21T13:38:37;14.00;99.90
1800;DHT22;919;48.274;12.292;2024-02-21T13:41:05;13.80;99.90
1800;DHT22;919;48.274;12.292;2024-02-21T13:43:31;13.60;99.90
1800;DHT22;919;48.274;12.292;2024-02-21T13:45:59;13.60;99.90
1800;DHT22;919;48.274;12.292;2024-02-21T13:48:26;13.60;99.90
1800;DHT22;919;48.274;12.292;2024-02-21T13:50:56;13.40;99.90
1800;DHT22;919;48.274;12.292;2024-02-21T13:53:22;13.40;99.90
1800;DHT22;919;48.274;12.292;2024-02-21T13:55:49;13.50;99.90
1800;DHT22;919;48.274;12.292;2024-02-21T13:58:16;13.70;99.90
1800;DHT22;919;48.274;12.292;2024-02-21T14:00:43;13.50;99.90
1800;DHT22;919;48.274;12.292;2024-02-21T14:03:10;13.40;99.90
1800;DHT22;919;48.274;12.292;2024-02-21T14:05:37;13.50;99.90
1800;DHT22;919;48.274;12.292;2024-02-21T14:08:06;13.50;99.90
1800;DHT22;919;48.274;12.292;2024-02-21T14:10:33;13.60;99.90
1800;DHT22;919;48.274;12.292;2024-02-21T14:13:00;13.60;99.90
1800;DHT22;919;48.274;12.292;2024-02-21T14:15:27;13.70;99.90
1800;DHT22;919;48.274;12.292;2024-02-21T14:17:53;13.80;99.90
1800;DHT22;919;48.274;12.292;2024-02-21T14:20:20;13.80;99.90
1800;DHT22;919;48.274;12.292;2024-02-21T14:22:47;13.80;99.90
1800;DHT22;919;48.274;12.292;2024-02-21T14:25:15;13.80;99.90
1800;DHT22;919;48.274;12.292;2024-02-21T14:27:42;13.60;99.90
1800;DHT22;919;48.274;12.292;2024-02-21T14:30:09;13.50;99.90
1800;DHT22;919;48.274;12.292;2024-02-21T14:32:36;13.40;99.90
1800;DHT22;919;48.274;12.292;2024-02-21T14:35:03;13.40;99.90
1800;DHT22;919;48.274;12.292;2024-02-21T14:37:31;13.40;99.90
1800;DHT22;919;48.274;12.292;2024-02-21T14:39:58;13.40;99.90
1800;DHT22;919;48.274;12.292;2024-02-21T14:42:27;13.40;99.90
1800;DHT22;919;48.274;12.292;2024-02-21T14:44:54;13.40;99.90
1800;DHT22;919;48.274;12.292;2024-02-21T14:47:29;13.40;99.90
1800;DHT22;919;48.274;12.292;2024-02-21T14:49:56;13.20;99.90
1800;DHT22;919;48.274;12.292;2024-02-21T14:52:23;13.10;99.90
1800;DHT22;919;48.274;12.292;2024-02-21T14:54:52;13.00;99.90
1800;DHT22;919;48.274;12.292;2024-02-21T14:57:19;12.90;99.90
1800;DHT22;919;48.274;12.292;2024-02-21T14:59:48;12.90;99.90
1800;DHT22;919;48.274;12.292;2024-02-21T15:02:15;12.90;99.90
1800;DHT22;919;48.274;12.292;2024-02-21T15:04:42;12.90;99.90
1800;DHT22;919;48.274;12.292;2024-02-21T15:07:09;12.90;99.90
1800;DHT22;919;48.274;12.292;2024-02-21T15:09:35;12.90;99.90
1800;DHT22;919;48.274;12.292;2024-02-21T15:12:02;12.80;99.90
1800;DHT22;919;48.274;12.292;2024-02-21T15:14:29;12.80;99.90
1800;DHT22;919;48.274;12.292;2024-02-21T15:16:57;12.80;99.90
1800;DHT22;919;48.274;12.292;2024-02-21T15:19:24;12.80;99.90
1800;DHT22;919;48.274;12.292;2024-02-21T15:21:50;12.70;99.90
1800;DHT22;919;48.274;12.292;2024-02-21T15:24:19;12.70;99.90
1800;DHT22;919;48.274;12.292;2024-02-21T15:26:46;12.70;99.90
1800;DHT22;919;48.274;12.292;2024-02-21T15:29:12;12.70;99.90
1800;DHT22;919;48.274;12.292;2024-02-21T15:31:39;12.60;99.90
1800;DHT22;919;48.274;12.292;2024-02-21T15:34:10;12.60;99.90
1800;DHT22;919;48.274;12.292;2024-02-21T15:36:37;12.50;99.90
1800;DHT22;919;48.274;12.292;2024-02-21T15:39:03;12.40;99.90
1800;DHT22;919;48.274;12.292;2024-02-21T15:41:30;12.20;99.90
1800;DHT22;919;48.274;12.292;2024-02-21T15:43:57;12.10;99.90
1800;DHT22;919;48.274;12.292;2024-02-21T15:46:25;11.90;99.90
1800;DHT22;919;48.274;12.292;2024-02-21T15:48:51;11.70;99.90
1800;DHT22;919;48.274;12.292;2024-02-21T15:51:21;11.60;99.90
1800;DHT22;919;48.274;12.292;2024-02-21T15:53:47;11.40;99.90
1800;DHT22;919;48.274;12.292;2024-02-21T15:56:14;11.30;99.90
1800;DHT22;919;48.274;12.292;2024-02-21T15:58:41;11.10;99.90
1800;DHT22;919;48.274;12.292;2024-02-21T16:01:08;11.00;99.90
1800;DHT22;919;48.274;12.292;2024-02-21T16:03:37;10.90;99.90
1800;DHT22;919;48.274;12.292;2024-02-21T16:06:04;10.80;99.90
1800;DHT22;919;48.274;12.292;2024-02-21T16:08:33;10.70;99.90
1800;DHT22;919;48.274;12.292;2024-02-21T16:11:02;10.60;99.90
1800;DHT22;919;48.274;12.292;2024-02-21T16:13:28;10.50;99.90
1800;DHT22;919;48.274;12.292;2024-02-21T16:15:55;10.30;99.90
1800;DHT22;919;48.274;12.292;2024-02-21T16:18:22;10.10;99.90